sensor_id;sensor_type;location;lat;lon;timestamp;pressure;altitude;pressure_sealevel;temperature;humidity
74422;BME280;62856;51.446;8.360;2023-08-17T00:02:20;98190.25;;;23.33;83.63
74422;BME280;62856;51.446;8.360;2023-08-17T00:04:45;98186.72;;;23.33;83.86
74422;BME280;62856;51.446;8.360;2023-08-17T00:07:10;98183.97;;;23.33;83.82
74422;BME280;62856;51.446;8.360;2023-08-17T00:09:36;98182.81;;;23.34;83.83
74422;BME280;62856;51.446;8.360;2023-08-17T00:12:02;98187.06;;;23.31;83.48
74422;BME280;62856;51.446;8.360;2023-08-17T00:14:27;98189.47;;;23.33;83.73
74422;BME280;62856;51.446;8.360;2023-08-17T00:16:52;98184.69;;;23.29;83.56
74422;BME280;62856;51.446;8.360;2023-08-17T00:19:18;98193.38;;;23.32;83.96
74422;BME280;62856;51.446;8.360;2023-08-17T00:21:44;98193.75;;;23.30;83.98
74422;BME280;62856;51.446;8.360;2023-08-17T00:24:10;98191.81;;;23.31;83.90
74422;BME280;62856;51.446;8.360;2023-08-17T00:26:35;98193.38;;;23.32;83.74
74422;BME280;62856;51.446;8.360;2023-08-17T00:29:01;98185.41;;;23.26;83.69
74422;BME280;62856;51.446;8.360;2023-08-17T00:31:26;98196.50;;;23.30;83.68
74422;BME280;62856;51.446;8.360;2023-08-17T00:33:52;98213.88;;;23.34;83.82
74422;BME280;62856;51.446;8.360;2023-08-17T00:36:17;98207.56;;;23.34;83.83
74422;BME280;62856;51.446;8.360;2023-08-17T00:38:42;98211.13;;;23.34;83.82
74422;BME280;62856;51.446;8.360;2023-08-17T00:41:08;98204.28;;;23.28;83.54
74422;BME280;62856;51.446;8.360;2023-08-17T00:43:33;98217.78;;;23.33;83.41
74422;BME280;62856;51.446;8.360;2023-08-17T00:45:58;98222.84;;;23.31;83.98
74422;BME280;62856;51.446;8.360;2023-08-17T00:48:24;98218.94;;;23.32;83.48
74422;BME280;62856;51.446;8.360;2023-08-17T00:50:50;98223.28;;;23.33;83.46
74422;BME280;62856;51.446;8.360;2023-08-17T00:53:17;98216.19;;;23.32;83.52
74422;BME280;62856;51.446;8.360;2023-08-17T00:55:43;98226.41;;;23.32;83.69
74422;BME280;62856;51.446;8.360;2023-08-17T00:58:09;98228.78;;;23.33;83.42
74422;BME280;62856;51.446;8.360;2023-08-17T01:00:35;98231.09;;;23.31;83.57
74422;BME280;62856;51.446;8.360;2023-08-17T01:03:00;98238.19;;;23.32;83.55
74422;BME280;62856;51.446;8.360;2023-08-17T01:05:25;98227.19;;;23.32;83.35
74422;BME280;62856;51.446;8.360;2023-08-17T01:07:51;98226.41;;;23.32;83.22
74422;BME280;62856;51.446;8.360;2023-08-17T01:10:16;98234.66;;;23.32;83.19
74422;BME280;62856;51.446;8.360;2023-08-17T01:12:43;98230.75;;;23.33;83.09
74422;BME280;62856;51.446;8.360;2023-08-17T01:15:32;98237.84;;;23.34;82.76
74422;BME280;62856;51.446;8.360;2023-08-17T01:20:40;98242.91;;;23.32;82.67
74422;BME280;62856;51.446;8.360;2023-08-17T01:23:07;98235.00;;;23.30;82.68
74422;BME280;62856;51.446;8.360;2023-08-17T01:25:32;98243.72;;;23.32;82.44
74422;BME280;62856;51.446;8.360;2023-08-17T01:28:04;98246.81;;;23.31;82.88
74422;BME280;62856;51.446;8.360;2023-08-17T01:30:34;98242.78;;;23.28;82.89
74422;BME280;62856;51.446;8.360;2023-08-17T01:33:10;98234.53;;;23.28;82.34
74422;BME280;62856;51.446;8.360;2023-08-17T01:35:48;98231.00;;;23.27;82.82
74422;BME280;62856;51.446;8.360;2023-08-17T01:38:18;98232.16;;;23.26;82.44
74422;BME280;62856;51.446;8.360;2023-08-17T01:40:47;98230.22;;;23.27;82.47
74422;BME280;62856;51.446;8.360;2023-08-17T01:43:13;98224.72;;;23.27;82.29
74422;BME280;62856;51.446;8.360;2023-08-17T01:45:39;98227.47;;;23.27;82.69
74422;BME280;62856;51.446;8.360;2023-08-17T01:48:05;98231.00;;;23.27;82.38
74422;BME280;62856;51.446;8.360;2023-08-17T01:50:30;98231.34;;;23.26;82.39
74422;BME280;62856;51.446;8.360;2023-08-17T01:52:55;98230.56;;;23.25;82.20
74422;BME280;62856;51.446;8.360;2023-08-17T01:55:21;98234.09;;;23.26;82.19
74422;BME280;62856;51.446;8.360;2023-08-17T01:57:48;98227.41;;;23.23;81.92
74422;BME280;62856;51.446;8.360;2023-08-17T02:00:14;98221.16;;;23.26;81.90
74422;BME280;62856;51.446;8.360;2023-08-17T02:02:40;98218.41;;;23.26;81.89
74422;BME280;62856;51.446;8.360;2023-08-17T02:05:06;98214.84;;;23.26;82.06
74422;BME280;62856;51.446;8.360;2023-08-17T02:07:31;98217.97;;;23.24;82.20
74422;BME280;62856;51.446;8.360;2023-08-17T02:09:57;98212.09;;;23.26;81.80
74422;BME280;62856;51.446;8.360;2023-08-17T02:12:22;98209.34;;;23.26;81.87
74422;BME280;62856;51.446;8.360;2023-08-17T02:14:47;98201.91;;;23.26;81.17
74422;BME280;62856;51.446;8.360;2023-08-17T02:17:13;98200.28;;;23.25;81.45
74422;BME280;62856;51.446;8.360;2023-08-17T02:19:41;98206.59;;;23.26;81.37
74422;BME280;62856;51.446;8.360;2023-08-17T02:22:06;98197.22;;;23.27;81.28
74422;BME280;62856;51.446;8.360;2023-08-17T02:24:32;98199.16;;;23.26;81.19
74422;BME280;62856;51.446;8.360;2023-08-17T02:26:57;98196.41;;;23.26;81.04
74422;BME280;62856;51.446;8.360;2023-08-17T02:29:22;98204.22;;;23.24;80.94
74422;BME280;62856;51.446;8.360;2023-08-17T02:31:48;98199.53;;;23.25;81.25
74422;BME280;62856;51.446;8.360;2023-08-17T02:34:13;98197.91;;;23.24;81.07
74422;BME280;62856;51.446;8.360;2023-08-17T02:36:38;98208.13;;;23.23;81.23
74422;BME280;62856;51.446;8.360;2023-08-17T02:39:04;98167.75;;;23.08;81.00
74422;BME280;62856;51.446;8.360;2023-08-17T02:41:29;98190.81;;;23.23;80.83
74422;BME280;62856;51.446;8.360;2023-08-17T02:43:57;98197.13;;;23.23;80.97
74422;BME280;62856;51.446;8.360;2023-08-17T02:46:23;98197.91;;;23.24;81.30
74422;BME280;62856;51.446;8.360;2023-08-17T02:48:48;98195.97;;;23.24;81.08
74422;BME280;62856;51.446;8.360;2023-08-17T02:51:15;98199.06;;;23.23;80.88
74422;BME280;62856;51.446;8.360;2023-08-17T02:53:40;98197.13;;;23.23;80.66
74422;BME280;62856;51.446;8.360;2023-08-17T02:56:06;98203.41;;;23.24;80.24
74422;BME280;62856;51.446;8.360;2023-08-17T02:58:31;98209.72;;;23.24;79.85
74422;BME280;62856;51.446;8.360;2023-08-17T03:00:56;98203.78;;;23.22;80.30
74422;BME280;62856;51.446;8.360;2023-08-17T03:03:22;98206.09;;;23.20;80.15
74422;BME280;62856;51.446;8.360;2023-08-17T03:05:47;98203.78;;;23.22;80.43
74422;BME280;62856;51.446;8.360;2023-08-17T03:08:12;98206.91;;;23.21;80.12
74422;BME280;62856;51.446;8.360;2023-08-17T03:10:38;98211.22;;;23.22;80.18
74422;BME280;62856;51.446;8.360;2023-08-17T03:13:03;98219.84;;;23.20;80.11
74422;BME280;62856;51.446;8.360;2023-08-17T03:15:29;98219.84;;;23.20;80.03
74422;BME280;62856;51.446;8.360;2023-08-17T03:17:54;98230.84;;;23.20;80.15
74422;BME280;62856;51.446;8.360;2023-08-17T03:20:19;98218.25;;;23.19;79.96
74422;BME280;62856;51.446;8.360;2023-08-17T03:22:45;98219.06;;;23.20;79.65
74422;BME280;62856;51.446;8.360;2023-08-17T03:25:10;98224.56;;;23.20;79.73
74422;BME280;62856;51.446;8.360;2023-08-17T03:27:36;98217.25;;;23.08;79.95
74422;BME280;62856;51.446;8.360;2023-08-17T03:30:01;98220.56;;;23.17;80.04
74422;BME280;62856;51.446;8.360;2023-08-17T03:32:26;98219.41;;;23.18;80.06
74422;BME280;62856;51.446;8.360;2023-08-17T03:34:52;98213.91;;;23.18;79.47
74422;BME280;62856;51.446;8.360;2023-08-17T03:37:17;98212.69;;;23.16;79.30
74422;BME280;62856;51.446;8.360;2023-08-17T03:39:42;98208.41;;;23.18;79.57
74422;BME280;62856;51.446;8.360;2023-08-17T03:42:08;98208.78;;;23.17;79.23
74422;BME280;62856;51.446;8.360;2023-08-17T03:44:33;98200.53;;;23.17;79.28
74422;BME280;62856;51.446;8.360;2023-08-17T03:46:58;98195.38;;;23.15;79.10
74422;BME280;62856;51.446;8.360;2023-08-17T03:49:24;98198.56;;;23.17;79.25
74422;BME280;62856;51.446;8.360;2023-08-17T03:51:49;98189.88;;;23.15;79.34
74422;BME280;62856;51.446;8.360;2023-08-17T03:54:17;98190.69;;;23.16;79.29
74422;BME280;62856;51.446;8.360;2023-08-17T03:56:43;98189.09;;;23.15;79.23
74422;BME280;62856;51.446;8.360;2023-08-17T03:59:08;98180.06;;;23.14;79.06
74422;BME280;62856;51.446;8.360;2023-08-17T04:01:33;98180.81;;;23.15;79.08
74422;BME280;62856;51.446;8.360;2023-08-17T04:03:59;98179.63;;;23.12;79.20
74422;BME280;62856;51.446;8.360;2023-08-17T04:06:24;98181.19;;;23.13;78.87
74422;BME280;62856;51.446;8.360;2023-08-17T04:08:49;98178.44;;;23.13;79.24
74422;BME280;62856;51.446;8.360;2023-08-17T04:11:14;98174.13;;;23.12;79.04
74422;BME280;62856;51.446;8.360;2023-08-17T04:13:40;98181.19;;;23.13;78.79
74422;BME280;62856;51.446;8.360;2023-08-17T04:16:05;98174.13;;;23.12;78.60
74422;BME280;62856;51.446;8.360;2023-08-17T04:18:30;98176.78;;;23.09;77.71
74422;BME280;62856;51.446;8.360;2023-08-17T04:20:56;98174.69;;;23.02;77.47
74422;BME280;62856;51.446;8.360;2023-08-17T04:23:21;98181.28;;;22.98;77.81
74422;BME280;62856;51.446;8.360;2023-08-17T04:25:47;98177.59;;;22.90;78.23
74422;BME280;62856;51.446;8.360;2023-08-17T04:28:13;98178.22;;;22.84;78.52
74422;BME280;62856;51.446;8.360;2023-08-17T04:30:38;98193.06;;;22.79;78.81
74422;BME280;62856;51.446;8.360;2023-08-17T04:33:04;98188.69;;;22.78;78.93
74422;BME280;62856;51.446;8.360;2023-08-17T04:35:29;98200.41;;;22.75;79.97
74422;BME280;62856;51.446;8.360;2023-08-17T04:37:54;98198.75;;;22.71;80.35
74422;BME280;62856;51.446;8.360;2023-08-17T04:40:20;98215.19;;;22.67;80.50
74422;BME280;62856;51.446;8.360;2023-08-17T04:42:45;98190.72;;;22.47;80.11
74422;BME280;62856;51.446;8.360;2023-08-17T04:45:10;98205.16;;;22.59;80.47
74422;BME280;62856;51.446;8.360;2023-08-17T04:47:36;98205.88;;;22.56;80.51
74422;BME280;62856;51.446;8.360;2023-08-17T04:50:02;98220.06;;;22.58;80.52
74422;BME280;62856;51.446;8.360;2023-08-17T04:52:27;98218.00;;;22.55;80.49
74422;BME280;62856;51.446;8.360;2023-08-17T04:54:53;98219.06;;;22.51;80.58
74422;BME280;62856;51.446;8.360;2023-08-17T04:57:18;98225.00;;;22.53;81.06
74422;BME280;62856;51.446;8.360;2023-08-17T04:59:44;98209.66;;;22.52;81.96
74422;BME280;62856;51.446;8.360;2023-08-17T05:02:09;98193.97;;;22.52;81.45
74422;BME280;62856;51.446;8.360;2023-08-17T05:04:35;98184.56;;;22.53;81.46
74422;BME280;62856;51.446;8.360;2023-08-17T05:07:00;98178.31;;;22.53;81.88
74422;BME280;62856;51.446;8.360;2023-08-17T05:09:26;98174.84;;;22.56;81.80
74422;BME280;62856;51.446;8.360;2023-08-17T05:11:51;98171.75;;;22.57;81.46
74422;BME280;62856;51.446;8.360;2023-08-17T05:14:16;98176.88;;;22.59;81.41
74422;BME280;62856;51.446;8.360;2023-08-17T05:16:42;98174.94;;;22.59;81.61
74422;BME280;62856;51.446;8.360;2023-08-17T05:19:07;98168.28;;;22.60;81.12
74422;BME280;62856;51.446;8.360;2023-08-17T05:21:34;98174.56;;;22.61;81.08
74422;BME280;62856;51.446;8.360;2023-08-17T05:24:00;98176.94;;;22.62;81.00
74422;BME280;62856;51.446;8.360;2023-08-17T05:26:25;98169.16;;;22.64;80.99
74422;BME280;62856;51.446;8.360;2023-08-17T05:28:50;98171.09;;;22.64;81.63
74422;BME280;62856;51.446;8.360;2023-08-17T05:31:16;98174.66;;;22.64;80.92
74422;BME280;62856;51.446;8.360;2023-08-17T05:33:41;98181.75;;;22.65;80.96
74422;BME280;62856;51.446;8.360;2023-08-17T05:36:07;98196.72;;;22.68;81.31
74422;BME280;62856;51.446;8.360;2023-08-17T05:38:33;98205.75;;;22.68;81.56
74422;BME280;62856;51.446;8.360;2023-08-17T05:40:59;98192.47;;;22.70;81.73
74422;BME280;62856;51.446;8.360;2023-08-17T05:43:25;98202.66;;;22.70;81.71
74422;BME280;62856;51.446;8.360;2023-08-17T05:45:51;98208.59;;;22.72;81.06
74422;BME280;62856;51.446;8.360;2023-08-17T05:48:19;98208.59;;;22.72;81.08
74422;BME280;62856;51.446;8.360;2023-08-17T05:50:44;98208.59;;;22.72;81.08
74422;BME280;62856;51.446;8.360;2023-08-17T05:53:10;98215.25;;;22.71;80.83
74422;BME280;62856;51.446;8.360;2023-08-17T05:55:35;98213.28;;;22.71;80.79
74422;BME280;62856;51.446;8.360;2023-08-17T05:58:01;98214.88;;;22.72;80.96
74422;BME280;62856;51.446;8.360;2023-08-17T06:00:27;98216.03;;;22.71;81.22
74422;BME280;62856;51.446;8.360;2023-08-17T06:02:53;98211.69;;;22.70;81.12
74422;BME280;62856;51.446;8.360;2023-08-17T06:05:23;98225.06;;;22.72;81.29
74422;BME280;62856;51.446;8.360;2023-08-17T06:07:50;98225.06;;;22.72;81.00
74422;BME280;62856;51.446;8.360;2023-08-17T06:10:15;98236.88;;;22.72;81.12
74422;BME280;62856;51.446;8.360;2023-08-17T06:12:41;98226.25;;;22.71;80.78
74422;BME280;62856;51.446;8.360;2023-08-17T06:15:06;98221.00;;;22.66;80.72
74422;BME280;62856;51.446;8.360;2023-08-17T06:17:32;98230.94;;;22.70;80.66
74422;BME280;62856;51.446;8.360;2023-08-17T06:19:57;98234.50;;;22.71;80.60
74422;BME280;62856;51.446;8.360;2023-08-17T06:22:22;98233.69;;;22.70;80.86
74422;BME280;62856;51.446;8.360;2023-08-17T06:24:48;98234.81;;;22.69;80.51
74422;BME280;62856;51.446;8.360;2023-08-17T06:27:14;98231.66;;;22.67;80.26
74422;BME280;62856;51.446;8.360;2023-08-17T06:29:40;98239.53;;;22.69;80.23
74422;BME280;62856;51.446;8.360;2023-08-17T06:32:07;98234.06;;;22.69;79.92
74422;BME280;62856;51.446;8.360;2023-08-17T06:34:33;98234.41;;;22.67;79.67
74422;BME280;62856;51.446;8.360;2023-08-17T06:37:01;98237.16;;;22.67;80.07
74422;BME280;62856;51.446;8.360;2023-08-17T06:39:26;98245.41;;;22.67;79.75
74422;BME280;62856;51.446;8.360;2023-08-17T06:41:52;98241.84;;;22.67;79.72
74422;BME280;62856;51.446;8.360;2023-08-17T06:44:18;98240.25;;;22.66;79.50
74422;BME280;62856;51.446;8.360;2023-08-17T06:46:43;98248.50;;;22.66;79.78
74422;BME280;62856;51.446;8.360;2023-08-17T06:49:08;98244.59;;;22.67;79.97
74422;BME280;62856;51.446;8.360;2023-08-17T06:51:34;98241.41;;;22.65;79.73
74422;BME280;62856;51.446;8.360;2023-08-17T06:53:59;98240.59;;;22.64;79.79
74422;BME280;62856;51.446;8.360;2023-08-17T06:56:25;98252.41;;;22.65;80.50
74422;BME280;62856;51.446;8.360;2023-08-17T06:58:50;98213.41;;;22.44;80.31
74422;BME280;62856;51.446;8.360;2023-08-17T07:01:16;98248.41;;;22.62;80.23
74422;BME280;62856;51.446;8.360;2023-08-17T07:03:41;98244.06;;;22.61;80.12
74422;BME280;62856;51.446;8.360;2023-08-17T07:06:06;98245.66;;;22.62;80.37
74422;BME280;62856;51.446;8.360;2023-08-17T07:08:33;98244.88;;;22.62;80.43
74422;BME280;62856;51.446;8.360;2023-08-17T07:10:58;98248.41;;;22.62;80.69
74422;BME280;62856;51.446;8.360;2023-08-17T07:13:23;98255.06;;;22.61;80.58
74422;BME280;62856;51.446;8.360;2023-08-17T07:15:49;98250.38;;;22.62;80.32
74422;BME280;62856;51.446;8.360;2023-08-17T07:18:14;98247.97;;;22.60;80.67
74422;BME280;62856;51.446;8.360;2023-08-17T07:20:39;98247.97;;;22.60;80.51
74422;BME280;62856;51.446;8.360;2023-08-17T07:23:05;98247.56;;;22.58;81.04
74422;BME280;62856;51.446;8.360;2023-08-17T07:25:30;98247.56;;;22.58;81.07
74422;BME280;62856;51.446;8.360;2023-08-17T07:27:56;98258.53;;;22.58;80.71
74422;BME280;62856;51.446;8.360;2023-08-17T07:30:21;98262.44;;;22.57;80.88
74422;BME280;62856;51.446;8.360;2023-08-17T07:32:46;98264.81;;;22.59;80.96
74422;BME280;62856;51.446;8.360;2023-08-17T07:35:12;98264.03;;;22.58;80.96
74422;BME280;62856;51.446;8.360;2023-08-17T07:37:37;98276.16;;;22.57;80.78
74422;BME280;62856;51.446;8.360;2023-08-17T07:40:03;98271.03;;;22.56;80.79
74422;BME280;62856;51.446;8.360;2023-08-17T07:42:28;98271.84;;;22.56;80.86
74422;BME280;62856;51.446;8.360;2023-08-17T07:44:54;98264.72;;;22.55;80.87
74422;BME280;62856;51.446;8.360;2023-08-17T07:47:19;98271.84;;;22.56;81.27
74422;BME280;62856;51.446;8.360;2023-08-17T07:49:44;98262.78;;;22.56;81.80
74422;BME280;62856;51.446;8.360;2023-08-17T07:52:10;98270.22;;;22.55;81.24
74422;BME280;62856;51.446;8.360;2023-08-17T07:54:35;98262.31;;;22.54;81.26
74422;BME280;62856;51.446;8.360;2023-08-17T07:57:01;98261.63;;;22.57;81.52
74422;BME280;62856;51.446;8.360;2023-08-17T07:59:28;98256.13;;;22.57;81.51
74422;BME280;62856;51.446;8.360;2023-08-17T08:01:53;98256.13;;;22.57;81.51
74422;BME280;62856;51.446;8.360;2023-08-17T08:04:19;98254.19;;;22.57;81.76
74422;BME280;62856;51.446;8.360;2023-08-17T08:06:44;98254.88;;;22.54;82.13
74422;BME280;62856;51.446;8.360;2023-08-17T08:09:09;98262.44;;;22.57;81.77
74422;BME280;62856;51.446;8.360;2023-08-17T08:11:35;98262.44;;;22.57;81.93
74422;BME280;62856;51.446;8.360;2023-08-17T08:14:00;98264.03;;;22.58;82.05
74422;BME280;62856;51.446;8.360;2023-08-17T08:16:27;98268.72;;;22.58;82.12
74422;BME280;62856;51.446;8.360;2023-08-17T08:18:52;98270.66;;;22.57;81.98
74422;BME280;62856;51.446;8.360;2023-08-17T08:21:18;98271.13;;;22.59;81.96
74422;BME280;62856;51.446;8.360;2023-08-17T08:23:43;98281.31;;;22.59;82.07
74422;BME280;62856;51.446;8.360;2023-08-17T08:26:08;98283.28;;;22.58;82.12
74422;BME280;62856;51.446;8.360;2023-08-17T08:28:34;98283.69;;;22.60;81.83
74422;BME280;62856;51.446;8.360;2023-08-17T08:31:03;98278.56;;;22.59;82.34
74422;BME280;62856;51.446;8.360;2023-08-17T08:33:29;98278.19;;;22.60;82.37
74422;BME280;62856;51.446;8.360;2023-08-17T08:35:54;98279.34;;;22.59;82.38
74422;BME280;62856;51.446;8.360;2023-08-17T08:38:20;98275.81;;;22.59;82.22
74422;BME280;62856;51.446;8.360;2023-08-17T08:40:47;98279.34;;;22.59;82.48
74422;BME280;62856;51.446;8.360;2023-08-17T08:43:13;98290.00;;;22.61;82.60
74422;BME280;62856;51.446;8.360;2023-08-17T08:45:41;98283.69;;;22.60;82.36
74422;BME280;62856;51.446;8.360;2023-08-17T08:48:08;98282.91;;;22.60;82.13
74422;BME280;62856;51.446;8.360;2023-08-17T08:50:36;98279.81;;;22.61;82.17
74422;BME280;62856;51.446;8.360;2023-08-17T08:53:03;98286.09;;;22.62;82.06
74422;BME280;62856;51.446;8.360;2023-08-17T08:55:37;98279.81;;;22.61;82.25
74422;BME280;62856;51.446;8.360;2023-08-17T08:58:04;98275.13;;;22.62;82.12
74422;BME280;62856;51.446;8.360;2023-08-17T09:00:30;98281.75;;;22.61;82.62
74422;BME280;62856;51.446;8.360;2023-08-17T09:02:56;98278.19;;;22.60;82.63
74422;BME280;62856;51.446;8.360;2023-08-17T09:05:23;98275.88;;;22.62;82.78
74422;BME280;62856;51.446;8.360;2023-08-17T09:07:49;98271.19;;;22.63;82.83
74422;BME280;62856;51.446;8.360;2023-08-17T09:10:16;98274.75;;;22.63;82.48
74422;BME280;62856;51.446;8.360;2023-08-17T09:12:43;98262.59;;;22.64;82.53
74422;BME280;62856;51.446;8.360;2023-08-17T09:15:09;98260.13;;;22.59;81.91
74422;BME280;62856;51.446;8.360;2023-08-17T09:17:35;98267.28;;;22.64;82.27
74422;BME280;62856;51.446;8.360;2023-08-17T09:20:00;98261.44;;;22.65;82.12
74422;BME280;62856;51.446;8.360;2023-08-17T09:22:46;98267.72;;;22.66;82.35
74422;BME280;62856;51.446;8.360;2023-08-17T09:25:22;98263.84;;;22.67;82.41
74422;BME280;62856;51.446;8.360;2023-08-17T09:27:47;98266.59;;;22.67;82.14
74422;BME280;62856;51.446;8.360;2023-08-17T09:30:13;98268.16;;;22.68;82.22
74422;BME280;62856;51.446;8.360;2023-08-17T09:32:38;98265.41;;;22.68;81.98
74422;BME280;62856;51.446;8.360;2023-08-17T09:35:05;98270.91;;;22.68;82.18
74422;BME280;62856;51.446;8.360;2023-08-17T09:37:32;98270.13;;;22.67;82.04
74422;BME280;62856;51.446;8.360;2023-08-17T09:39:57;98276.41;;;22.68;82.74
74422;BME280;62856;51.446;8.360;2023-08-17T09:42:23;98273.31;;;22.69;82.71
74422;BME280;62856;51.446;8.360;2023-08-17T09:44:50;98273.31;;;22.69;82.67
74422;BME280;62856;51.446;8.360;2023-08-17T09:47:16;98269.34;;;22.67;82.89
74422;BME280;62856;51.446;8.360;2023-08-17T09:49:49;98268.16;;;22.68;83.01
74422;BME280;62856;51.446;8.360;2023-08-17T09:52:15;98261.16;;;22.70;83.67
74422;BME280;62856;51.446;8.360;2023-08-17T09:54:41;98252.13;;;22.70;83.77
74422;BME280;62856;51.446;8.360;2023-08-17T09:57:08;98249.00;;;22.71;83.55
74422;BME280;62856;51.446;8.360;2023-08-17T09:59:34;98247.06;;;22.72;83.45
74422;BME280;62856;51.446;8.360;2023-08-17T10:01:59;98237.56;;;22.69;83.08
74422;BME280;62856;51.446;8.360;2023-08-17T10:04:25;98258.06;;;22.72;83.27
74422;BME280;62856;51.446;8.360;2023-08-17T10:06:59;98255.31;;;22.72;83.29
74422;BME280;62856;51.446;8.360;2023-08-17T10:09:31;98260.00;;;22.71;83.08
74422;BME280;62856;51.446;8.360;2023-08-17T10:12:02;98262.75;;;22.71;83.09
74422;BME280;62856;51.446;8.360;2023-08-17T10:14:36;98255.69;;;22.70;82.79
74422;BME280;62856;51.446;8.360;2023-08-17T10:17:08;98262.75;;;22.71;82.89
74422;BME280;62856;51.446;8.360;2023-08-17T10:19:50;98251.31;;;22.69;82.94
74422;BME280;62856;51.446;8.360;2023-08-17T10:22:26;98260.38;;;22.70;82.93
74422;BME280;62856;51.446;8.360;2023-08-17T10:24:56;98261.16;;;22.70;82.91
74422;BME280;62856;51.446;8.360;2023-08-17T10:27:22;98268.25;;;22.71;83.25
74422;BME280;62856;51.446;8.360;2023-08-17T10:29:50;98258.41;;;22.70;83.43
74422;BME280;62856;51.446;8.360;2023-08-17T10:32:16;98266.31;;;22.72;83.73
74422;BME280;62856;51.446;8.360;2023-08-17T10:34:42;98262.75;;;22.71;83.52
74422;BME280;62856;51.446;8.360;2023-08-17T10:37:08;98269.06;;;22.72;83.27
74422;BME280;62856;51.446;8.360;2023-08-17T10:39:34;98275.00;;;22.74;83.50
74422;BME280;62856;51.446;8.360;2023-08-17T10:42:00;98266.66;;;22.70;83.66
74422;BME280;62856;51.446;8.360;2023-08-17T10:44:45;98282.06;;;22.75;83.86
74422;BME280;62856;51.446;8.360;2023-08-17T10:47:31;98283.97;;;22.71;83.97
74422;BME280;62856;51.446;8.360;2023-08-17T10:50:05;98281.28;;;22.74;83.81
74422;BME280;62856;51.446;8.360;2023-08-17T10:52:33;98283.25;;;22.74;83.97
74422;BME280;62856;51.446;8.360;2023-08-17T10:55:02;98286.00;;;22.74;83.55
74422;BME280;62856;51.446;8.360;2023-08-17T11:02:37;98278.56;;;22.74;82.67
74422;BME280;62856;51.446;8.360;2023-08-17T11:05:03;98275.44;;;22.76;83.47
74422;BME280;62856;51.446;8.360;2023-08-17T11:07:43;98281.75;;;22.76;83.57
74422;BME280;62856;51.446;8.360;2023-08-17T11:10:27;98272.31;;;22.77;83.49
74422;BME280;62856;51.446;8.360;2023-08-17T11:12:54;98269.56;;;22.77;83.67
74422;BME280;62856;51.446;8.360;2023-08-17T11:15:44;98266.81;;;22.77;83.22
74422;BME280;62856;51.446;8.360;2023-08-17T11:18:13;98271.16;;;22.78;83.99
74422;BME280;62856;51.446;8.360;2023-08-17T11:20:41;98268.84;;;22.80;83.79
74422;BME280;62856;51.446;8.360;2023-08-17T11:23:08;98268.06;;;22.80;83.52
74422;BME280;62856;51.446;8.360;2023-08-17T11:25:34;98264.53;;;22.79;83.56
74422;BME280;62856;51.446;8.360;2023-08-17T11:28:03;98268.53;;;22.82;83.56
74422;BME280;62856;51.446;8.360;2023-08-17T11:30:29;98260.59;;;22.80;83.76
74422;BME280;62856;51.446;8.360;2023-08-17T11:32:55;98257.53;;;22.82;84.02
74422;BME280;62856;51.446;8.360;2023-08-17T11:35:21;98248.47;;;22.81;83.96
74422;BME280;62856;51.446;8.360;2023-08-17T11:37:48;98255.53;;;22.82;84.51
74422;BME280;62856;51.446;8.360;2023-08-17T11:40:14;98253.88;;;22.78;84.18
74422;BME280;62856;51.446;8.360;2023-08-17T11:42:40;98259.91;;;22.83;84.32
74422;BME280;62856;51.446;8.360;2023-08-17T11:45:06;98254.78;;;22.82;84.37
74422;BME280;62856;51.446;8.360;2023-08-17T11:47:35;98259.91;;;22.83;84.53
74422;BME280;62856;51.446;8.360;2023-08-17T11:50:05;98260.69;;;22.84;84.28
74422;BME280;62856;51.446;8.360;2023-08-17T11:52:31;98263.78;;;22.82;84.03
74422;BME280;62856;51.446;8.360;2023-08-17T11:54:59;98257.16;;;22.83;84.36
74422;BME280;62856;51.446;8.360;2023-08-17T11:57:25;98260.28;;;22.82;84.39
74422;BME280;62856;51.446;8.360;2023-08-17T11:59:56;98267.72;;;22.81;84.84
74422;BME280;62856;51.446;8.360;2023-08-17T12:02:26;98264.97;;;22.81;84.85
74422;BME280;62856;51.446;8.360;2023-08-17T12:04:54;98270.47;;;22.81;84.36
74422;BME280;62856;51.446;8.360;2023-08-17T12:07:20;98268.53;;;22.82;84.25
74422;BME280;62856;51.446;8.360;2023-08-17T12:09:48;98264.16;;;22.81;84.19
74422;BME280;62856;51.446;8.360;2023-08-17T12:12:17;98266.09;;;22.80;84.37
74422;BME280;62856;51.446;8.360;2023-08-17T12:14:43;98266.09;;;22.80;85.37
74422;BME280;62856;51.446;8.360;2023-08-17T12:17:16;98271.59;;;22.80;84.79
74422;BME280;62856;51.446;8.360;2023-08-17T12:19:42;98278.63;;;22.78;84.87
74422;BME280;62856;51.446;8.360;2023-08-17T12:22:08;98276.56;;;22.75;84.74
74422;BME280;62856;51.446;8.360;2023-08-17T12:24:34;98273.81;;;22.75;85.42
74422;BME280;62856;51.446;8.360;2023-08-17T12:27:02;98270.31;;;22.74;85.13
74422;BME280;62856;51.446;8.360;2023-08-17T12:29:28;98269.13;;;22.75;85.43
74422;BME280;62856;51.446;8.360;2023-08-17T12:31:57;98277.81;;;22.77;85.44
74422;BME280;62856;51.446;8.360;2023-08-17T12:34:22;98271.53;;;22.77;85.41
74422;BME280;62856;51.446;8.360;2023-08-17T12:36:49;98264.44;;;22.76;85.22
74422;BME280;62856;51.446;8.360;2023-08-17T12:39:15;98269.56;;;22.77;84.87
74422;BME280;62856;51.446;8.360;2023-08-17T12:41:41;98274.63;;;22.75;84.88
74422;BME280;62856;51.446;8.360;2023-08-17T12:44:08;98272.25;;;22.74;84.94
74422;BME280;62856;51.446;8.360;2023-08-17T12:46:34;98265.88;;;22.70;84.65
74422;BME280;62856;51.446;8.360;2023-08-17T12:49:00;98273.81;;;22.75;84.87
74422;BME280;62856;51.446;8.360;2023-08-17T12:51:25;98265.59;;;22.75;84.72
74422;BME280;62856;51.446;8.360;2023-08-17T12:53:51;98269.94;;;22.76;85.46
74422;BME280;62856;51.446;8.360;2023-08-17T12:56:16;98275.44;;;22.76;84.54
74422;BME280;62856;51.446;8.360;2023-08-17T12:58:42;98262.06;;;22.74;84.65
74422;BME280;62856;51.446;8.360;2023-08-17T13:01:07;98251.75;;;22.71;84.36
74422;BME280;62856;51.446;8.360;2023-08-17T13:03:33;98263.63;;;22.75;84.32
74422;BME280;62856;51.446;8.360;2023-08-17T13:05:58;98261.63;;;22.72;84.63